Time;durP1;ratioP1;P1;durP2;ratioP2;P2;SDS_P1;SDS_P2;PMS_P1;PMS_P2;Temp;Humidity;BMP_temperature;BMP_pressure;BME280_temperature;BME280_humidity;BME280_pressure;Samples;Min_cycle;Max_cycle;Signal;HPM_P1;HPM_P2
2021/06/10 00:00:17;;;;;;;13.57;12.20;;;14.70;60.40;;;;;;5073400;28;20548;-73
2021/06/10 00:02:43;;;;;;;16.80;14.50;;;14.60;60.40;;;;;;5073755;28;20242;-74
2021/06/10 00:05:11;;;;;;;15.50;13.97;;;14.60;60.80;;;;;;5073666;28;20474;-73
2021/06/10 00:07:37;;;;;;;18.97;16.97;;;14.50;61.60;;;;;;5072016;28;20420;-73
2021/06/10 00:10:09;;;;;;;22.07;19.87;;;14.40;62.20;;;;;;5073410;28;20418;-73
2021/06/10 00:12:34;;;;;;;23.80;21.93;;;14.30;62.70;;;;;;5073790;28;20420;-73
2021/06/10 00:15:00;;;;;;;22.00;20.03;;;14.30;62.70;;;;;;5073986;28;20531;-73
2021/06/10 00:17:26;;;;;;;23.27;21.07;;;14.30;63.80;;;;;;5073695;28;20181;-74
2021/06/10 00:19:51;;;;;;;22.27;20.13;;;14.30;62.80;;;;;;5073294;28;20192;-73
2021/06/10 00:22:18;;;;;;;20.20;18.40;;;14.20;63.20;;;;;;5073411;28;20323;-73
2021/06/10 00:24:44;;;;;;;18.80;17.30;;;14.20;63.60;;;;;;5073211;28;20209;-73
2021/06/10 00:27:09;;;;;;;20.90;19.20;;;14.20;64.90;;;;;;5073306;28;20418;-73
2021/06/10 00:29:35;;;;;;;23.30;20.97;;;14.20;65.20;;;;;;5073313;28;20671;-73
2021/06/10 00:32:00;;;;;;;20.23;18.43;;;14.30;65.30;;;;;;5073403;28;20640;-73
2021/06/10 00:34:26;;;;;;;21.93;20.10;;;14.30;65.20;;;;;;5073289;28;20181;-73
2021/06/10 00:36:51;;;;;;;20.67;18.63;;;14.30;65.20;;;;;;5072884;28;20174;-73
2021/06/10 00:39:17;;;;;;;19.67;17.87;;;14.30;64.90;;;;;;5072159;28;20617;-73
2021/06/10 00:41:42;;;;;;;18.70;17.30;;;14.30;64.70;;;;;;5073681;28;20211;-73
2021/06/10 00:44:08;;;;;;;17.50;16.03;;;14.30;63.80;;;;;;5075830;28;20212;-73
2021/06/10 00:46:35;;;;;;;17.50;16.10;;;14.30;63.30;;;;;;5077365;28;20182;-73
2021/06/10 00:49:01;;;;;;;18.20;16.43;;;14.20;62.70;;;;;;5076826;28;20431;-73
2021/06/10 00:51:26;;;;;;;16.10;14.70;;;14.20;63.10;;;;;;5075529;28;20532;-73
2021/06/10 00:53:52;;;;;;;16.37;14.97;;;14.10;63.60;;;;;;5078313;28;20908;-73
2021/06/10 00:56:18;;;;;;;17.10;15.70;;;14.10;63.60;;;;;;5077673;28;20175;-73
2021/06/10 00:58:44;;;;;;;15.10;14.00;;;14.10;63.90;;;;;;5077116;28;20458;-73
2021/06/10 01:01:09;;;;;;;13.70;12.50;;;14.10;63.60;;;;;;5076079;28;20188;-73
2021/06/10 01:03:36;;;;;;;14.83;13.70;;;14.10;63.80;;;;;;5076584;28;20244;-73
2021/06/10 01:06:09;;;;;;;14.10;12.97;;;14.10;63.60;;;;;;5076787;28;20219;-73
2021/06/10 01:08:58;;;;;;;15.03;13.70;;;14.10;63.80;;;;;;5076445;28;20439;-72
2021/06/10 01:11:37;;;;;;;11.97;10.90;;;14.10;63.90;;;;;;5076844;28;20427;-72
2021/06/10 01:14:10;;;;;;;13.80;12.70;;;14.10;64.00;;;;;;5076615;28;20414;-73
2021/06/10 01:16:40;;;;;;;13.23;12.13;;;14.10;63.90;;;;;;5076303;28;20419;-73
2021/06/10 01:19:10;;;;;;;14.17;13.07;;;14.20;63.80;;;;;;5076214;28;20484;-72
2021/06/10 01:21:37;;;;;;;14.53;13.00;;;14.10;63.50;;;;;;5074985;28;20420;-73
2021/06/10 01:24:12;;;;;;;14.40;13.10;;;14.10;63.50;;;;;;5076568;28;20506;-73
2021/06/10 01:26:51;;;;;;;14.40;13.20;;;14.10;63.80;;;;;;5074749;28;20773;-73
2021/06/10 01:29:18;;;;;;;16.10;14.07;;;14.10;63.50;;;;;;5075592;28;20990;-73
2021/06/10 01:31:44;;;;;;;15.50;13.90;;;14.10;63.20;;;;;;5075956;28;20426;-73
2021/06/10 01:34:12;;;;;;;12.37;11.37;;;14.20;62.90;;;;;;5075813;28;20505;-73
2021/06/10 01:36:42;;;;;;;19.80;15.00;;;14.20;62.00;;;;;;5074506;28;20462;-73
2021/06/10 01:39:10;;;;;;;17.63;16.00;;;14.10;61.90;;;;;;5075729;28;20423;-73
2021/06/10 01:41:39;;;;;;;15.97;14.53;;;14.10;62.30;;;;;;5076335;28;20423;-73
2021/06/10 01:44:06;;;;;;;17.30;15.60;;;14.00;62.90;;;;;;5075697;28;20452;-73
2021/06/10 01:46:32;;;;;;;15.00;13.83;;;14.00;62.30;;;;;;5075740;28;20404;-73
2021/06/10 01:48:59;;;;;;;17.93;16.07;;;14.00;62.50;;;;;;5074908;28;20428;-73
2021/06/10 01:51:30;;;;;;;18.87;17.20;;;14.00;62.30;;;;;;5075276;28;20411;-73
2021/06/10 01:53:58;;;;;;;16.90;15.47;;;14.00;62.30;;;;;;5075387;28;20477;-73
2021/06/10 01:56:25;;;;;;;20.03;18.23;;;14.00;62.10;;;;;;5076679;28;20430;-73
2021/06/10 01:58:52;;;;;;;18.57;17.07;;;13.90;61.80;;;;;;5075812;28;20588;-73
2021/06/10 02:01:22;;;;;;;17.17;15.67;;;13.80;62.20;;;;;;5074379;28;20415;-73
2021/06/10 02:03:49;;;;;;;18.30;16.80;;;13.80;62.60;;;;;;5076005;28;20855;-73
2021/06/10 02:06:17;;;;;;;19.47;17.77;;;13.80;62.70;;;;;;5076038;28;20408;-73
2021/06/10 02:08:45;;;;;;;17.47;15.63;;;13.90;62.30;;;;;;5075762;28;20431;-73
2021/06/10 02:11:11;;;;;;;16.20;14.70;;;13.90;62.00;;;;;;5074256;28;20448;-72
2021/06/10 02:13:37;;;;;;;16.80;15.57;;;13.80;62.50;;;;;;5075713;28;20415;-74
2021/06/10 02:16:07;;;;;;;19.10;17.53;;;13.70;62.50;;;;;;5075111;28;20412;-73
2021/06/10 02:18:35;;;;;;;15.23;13.83;;;13.70;62.90;;;;;;5075515;28;20480;-73
2021/06/10 02:21:06;;;;;;;16.23;14.93;;;13.70;62.90;;;;;;5075412;28;20415;-73
2021/06/10 02:23:38;;;;;;;15.97;14.63;;;13.70;63.10;;;;;;5075277;28;20457;-73
2021/06/10 02:26:05;;;;;;;16.10;14.80;;;13.60;63.00;;;;;;5074794;28;20419;-73
2021/06/10 02:28:32;;;;;;;15.30;13.90;;;13.60;62.80;;;;;;5074844;28;21008;-73
2021/06/10 02:30:58;;;;;;;15.07;13.67;;;13.60;62.80;;;;;;5073652;28;20477;-73
2021/06/10 02:33:24;;;;;;;16.57;14.97;;;13.60;62.70;;;;;;5074621;28;20412;-72
2021/06/10 02:35:50;;;;;;;19.03;16.93;;;13.70;62.40;;;;;;5075123;28;20770;-73
2021/06/10 02:38:18;;;;;;;18.33;16.73;;;13.60;61.50;;;;;;5074834;28;20794;-73
2021/06/10 02:40:48;;;;;;;20.40;18.67;;;13.60;61.70;;;;;;5074268;28;20215;-73
2021/06/10 02:43:13;;;;;;;16.20;14.70;;;13.50;61.80;;;;;;5074948;28;20503;-71
2021/06/10 02:45:43;;;;;;;15.43;13.87;;;13.50;62.40;;;;;;5074852;28;20488;-71
2021/06/10 02:48:09;;;;;;;18.23;16.50;;;13.40;63.30;;;;;;5072777;28;20262;-71
2021/06/10 02:50:38;;;;;;;14.90;13.70;;;13.40;63.90;;;;;;5074380;28;20419;-71
2021/06/10 02:53:05;;;;;;;17.40;15.70;;;13.40;64.40;;;;;;5074646;28;20418;-72
2021/06/10 02:55:36;;;;;;;18.27;16.77;;;13.30;64.30;;;;;;5073779;28;20425;-71
2021/06/10 02:58:04;;;;;;;19.63;18.13;;;13.30;64.30;;;;;;5074034;28;20794;-71
2021/06/10 03:00:32;;;;;;;18.57;16.97;;;13.30;64.40;;;;;;5071582;28;20864;-71
2021/06/10 03:03:00;;;;;;;19.37;17.50;;;13.30;65.40;;;;;;5072480;28;20897;-71
2021/06/10 03:05:27;;;;;;;18.63;17.10;;;13.30;64.70;;;;;;5071406;28;20493;-71
2021/06/10 03:07:53;;;;;;;17.27;15.70;;;13.30;65.00;;;;;;5072462;28;20442;-71
2021/06/10 03:10:27;;;;;;;18.40;16.70;;;13.30;64.50;;;;;;5072462;28;20428;-71
2021/06/10 03:12:54;;;;;;;17.10;15.33;;;13.20;64.20;;;;;;5072534;28;20945;-71
2021/06/10 03:15:20;;;;;;;17.80;16.50;;;13.20;64.80;;;;;;5071303;28;20813;-71
2021/06/10 03:17:48;;;;;;;16.33;14.93;;;13.30;64.30;;;;;;5072222;28;20492;-71
2021/06/10 03:20:13;;;;;;;15.67;14.17;;;13.30;64.30;;;;;;5071908;28;20417;-71
2021/06/10 03:22:39;;;;;;;16.97;15.30;;;13.30;64.30;;;;;;5072377;28;20499;-71
2021/06/10 03:25:08;;;;;;;14.83;13.63;;;13.30;64.00;;;;;;5071657;28;20191;-71
2021/06/10 03:27:34;;;;;;;16.37;14.93;;;13.30;63.30;;;;;;5070663;28;20679;-71
2021/06/10 03:30:00;;;;;;;19.33;17.70;;;13.30;62.90;;;;;;5072017;28;20782;-71
2021/06/10 03:32:27;;;;;;;18.73;17.10;;;13.20;62.80;;;;;;5070851;28;20421;-71
2021/06/10 03:34:55;;;;;;;16.73;15.33;;;13.20;63.00;;;;;;5071866;28;20209;-71
2021/06/10 03:37:22;;;;;;;19.63;17.93;;;13.20;63.00;;;;;;5071888;28;20408;-71
2021/06/10 03:39:48;;;;;;;25.00;19.17;;;13.20;63.00;;;;;;5071305;28;20457;-71
2021/06/10 03:42:18;;;;;;;16.63;15.23;;;13.20;62.80;;;;;;5070719;28;20434;-71
2021/06/10 03:44:45;;;;;;;18.30;16.83;;;13.30;62.90;;;;;;5070440;28;20418;-71
2021/06/10 03:47:13;;;;;;;24.53;22.33;;;13.30;63.00;;;;;;5071748;28;20932;-71
2021/06/10 03:49:39;;;;;;;25.00;22.80;;;13.30;62.90;;;;;;5071524;28;20497;-71
2021/06/10 03:52:05;;;;;;;22.50;20.70;;;13.30;63.80;;;;;;5072136;28;20495;-71
2021/06/10 03:54:31;;;;;;;55.80;22.00;;;13.40;64.30;;;;;;5072551;28;20204;-71
2021/06/10 03:56:57;;;;;;;25.10;22.80;;;13.50;64.00;;;;;;5071146;28;20404;-71
2021/06/10 03:59:22;;;;;;;21.60;19.50;;;13.60;62.80;;;;;;5071940;28;20836;-71
2021/06/10 04:01:48;;;;;;;23.80;21.53;;;13.60;61.20;;;;;;5070741;28;20439;-74
2021/06/10 04:04:14;;;;;;;21.47;19.73;;;13.70;61.20;;;;;;5072227;28;20212;-72
2021/06/10 04:06:40;;;;;;;23.47;21.37;;;13.80;60.70;;;;;;5071447;28;20185;-73
2021/06/10 04:09:07;;;;;;;20.60;18.90;;;13.90;60.10;;;;;;5071491;28;20191;-70
2021/06/10 04:11:33;;;;;;;18.60;17.10;;;14.00;59.00;;;;;;5071613;28;20177;-71
2021/06/10 04:14:00;;;;;;;17.40;16.00;;;14.00;58.40;;;;;;5071352;28;20459;-71
2021/06/10 04:16:26;;;;;;;19.30;17.80;;;14.10;57.00;;;;;;5069858;28;20415;-72
2021/06/10 04:18:52;;;;;;;17.33;15.80;;;14.10;56.40;;;;;;5069885;28;20460;-70
2021/06/10 04:21:19;;;;;;;16.23;15.03;;;14.20;56.00;;;;;;5071575;28;20935;-70
2021/06/10 04:23:45;;;;;;;18.37;16.50;;;14.30;55.40;;;;;;5071682;28;20415;-71
2021/06/10 04:26:11;;;;;;;19.20;16.10;;;14.40;55.30;;;;;;5070076;28;20918;-71
2021/06/10 04:28:37;;;;;;;16.70;15.20;;;14.50;55.40;;;;;;5071801;28;20428;-70
2021/06/10 04:31:02;;;;;;;18.97;17.20;;;14.60;55.50;;;;;;5070421;28;20420;-71
2021/06/10 04:33:28;;;;;;;16.37;14.77;;;14.70;53.90;;;;;;5071316;28;20671;-74
2021/06/10 04:35:54;;;;;;;22.67;14.87;;;14.70;53.00;;;;;;5071448;28;20174;-70
2021/06/10 04:38:19;;;;;;;15.73;14.10;;;14.80;51.60;;;;;;5071633;28;20197;-71
2021/06/10 04:40:45;;;;;;;14.80;13.53;;;14.90;50.80;;;;;;5071318;28;20170;-70
2021/06/10 04:43:11;;;;;;;12.93;11.73;;;15.00;50.60;;;;;;5071087;28;20610;-71
2021/06/10 04:45:36;;;;;;;12.27;11.17;;;15.00;50.10;;;;;;5071257;28;20193;-71
2021/06/10 04:48:02;;;;;;;13.03;11.90;;;15.10;50.90;;;;;;5070951;28;20217;-71
2021/06/10 04:50:28;;;;;;;13.23;12.23;;;15.10;50.00;;;;;;5071091;28;20209;-71
2021/06/10 04:52:54;;;;;;;13.17;11.90;;;15.40;51.20;;;;;;5062784;28;20938;-73
2021/06/10 04:55:21;;;;;;;13.13;11.90;;;16.40;50.20;;;;;;5070932;28;20456;-73
2021/06/10 04:57:46;;;;;;;10.70;9.70;;;17.70;45.00;;;;;;5069961;28;20467;-72
2021/06/10 05:00:13;;;;;;;9.67;8.67;;;19.20;36.50;;;;;;5049262;28;20433;-75
2021/06/10 05:02:39;;;;;;;9.77;8.90;;;20.30;31.90;;;;;;5049868;28;20174;-74
2021/06/10 05:05:06;;;;;;;9.77;8.90;;;21.10;29.10;;;;;;5051106;28;20470;-75
2021/06/10 05:07:32;;;;;;;8.73;8.03;;;21.90;27.50;;;;;;5052609;28;20179;-72
2021/06/10 05:09:57;;;;;;;9.50;8.63;;;22.90;26.00;;;;;;5050153;28;20429;-73
2021/06/10 05:12:23;;;;;;;9.13;8.23;;;23.70;23.50;;;;;;5054947;28;20661;-73
2021/06/10 05:14:49;;;;;;;9.10;8.30;;;24.30;22.20;;;;;;5071815;28;20276;-76
2021/06/10 05:17:15;;;;;;;11.40;7.77;;;24.90;21.10;;;;;;5070670;28;20178;-75
2021/06/10 05:19:40;;;;;;;10.23;8.47;;;25.20;20.10;;;;;;5070298;28;20792;-73
2021/06/10 05:22:06;;;;;;;7.80;7.17;;;25.20;19.70;;;;;;5070555;28;20174;-75
2021/06/10 05:24:31;;;;;;;9.00;8.20;;;25.70;18.90;;;;;;5070624;28;20184;-73
2021/06/10 05:26:57;;;;;;;9.10;8.07;;;26.10;18.40;;;;;;5069444;28;20181;-75
2021/06/10 05:29:23;;;;;;;11.10;7.40;;;26.40;18.70;;;;;;5072958;28;20566;-72
2021/06/10 05:31:48;;;;;;;9.40;8.27;;;26.50;17.90;;;;;;5074527;28;20252;-73
2021/06/10 05:34:14;;;;;;;10.20;7.80;;;26.60;16.70;;;;;;5073815;28;20222;-73
2021/06/10 05:36:40;;;;;;;8.07;7.47;;;26.70;16.90;;;;;;5075204;28;20639;-73
2021/06/10 05:39:06;;;;;;;9.30;8.03;;;26.70;16.90;;;;;;5074742;28;20202;-72
2021/06/10 05:41:32;;;;;;;9.30;8.40;;;26.90;16.50;;;;;;5074262;28;20495;-73
2021/06/10 05:43:58;;;;;;;8.77;7.90;;;27.00;16.50;;;;;;5073973;28;20174;-72
2021/06/10 05:46:24;;;;;;;15.10;8.83;;;27.30;16.00;;;;;;5074454;28;20293;-72
2021/06/10 05:48:50;;;;;;;9.50;8.77;;;27.40;15.80;;;;;;5074556;28;20518;-71
2021/06/10 05:51:16;;;;;;;8.57;7.70;;;27.50;15.60;;;;;;5073570;28;20270;-72
2021/06/10 05:53:41;;;;;;;8.33;7.63;;;27.40;15.90;;;;;;5072475;28;20208;-72
2021/06/10 05:56:07;;;;;;;8.83;8.23;;;27.50;16.40;;;;;;5085367;28;20170;-74
2021/06/10 05:58:33;;;;;;;8.83;8.03;;;27.50;15.60;;;;;;5084271;28;20243;-73
2021/06/10 06:00:59;;;;;;;8.13;7.53;;;27.50;16.30;;;;;;5074129;28;20197;-73
2021/06/10 06:03:26;;;;;;;10.23;9.20;;;27.60;16.20;;;;;;5074720;28;20451;-73
2021/06/10 06:05:53;;;;;;;8.43;7.83;;;27.80;15.60;;;;;;5074179;28;20469;-73
2021/06/10 06:08:18;;;;;;;8.50;7.70;;;28.00;15.90;;;;;;5074368;28;20446;-72
2021/06/10 06:10:48;;;;;;;15.10;8.70;;;28.10;15.00;;;;;;5073317;28;20503;-72
2021/06/10 06:13:16;;;;;;;8.07;7.47;;;28.20;15.10;;;;;;5074052;28;20451;-72
2021/06/10 06:15:41;;;;;;;8.60;7.80;;;28.60;14.30;;;;;;5074491;28;20486;-71
2021/06/10 06:18:08;;;;;;;10.30;9.40;;;28.90;13.70;;;;;;5073852;28;20432;-72
2021/06/10 06:20:34;;;;;;;11.10;9.10;;;29.10;13.80;;;;;;5074029;28;20477;-71
2021/06/10 06:23:00;;;;;;;8.03;7.23;;;29.20;13.20;;;;;;5073772;28;20463;-72
2021/06/10 06:25:25;;;;;;;10.93;10.03;;;29.50;13.40;;;;;;5073938;28;20178;-71
2021/06/10 06:27:51;;;;;;;9.10;8.50;;;29.70;13.40;;;;;;5056689;28;20694;-72
2021/06/10 06:30:17;;;;;;;8.33;7.73;;;30.00;12.30;;;;;;5059408;28;20193;-71
2021/06/10 06:32:43;;;;;;;9.10;8.30;;;29.90;12.50;;;;;;5073918;28;20174;-72
2021/06/10 06:35:09;;;;;;;8.30;7.80;;;29.90;13.00;;;;;;5073882;28;20472;-72
2021/06/10 06:37:35;;;;;;;10.83;9.30;;;30.20;12.50;;;;;;5073526;28;20170;-72
2021/06/10 06:40:02;;;;;;;7.63;7.13;;;30.60;12.40;;;;;;5073169;28;20503;-72
2021/06/10 06:42:27;;;;;;;10.43;8.50;;;30.90;11.80;;;;;;5073145;28;20409;-72
2021/06/10 06:44:53;;;;;;;9.00;8.43;;;31.30;11.00;;;;;;5073201;28;20537;-72
2021/06/10 06:47:19;;;;;;;9.50;8.87;;;31.60;10.60;;;;;;5072668;28;20169;-73
2021/06/10 06:49:44;;;;;;;9.23;8.63;;;31.70;11.00;;;;;;5073988;28;20292;-72
2021/06/10 06:52:10;;;;;;;10.10;9.40;;;31.70;10.10;;;;;;5072937;28;20181;-73
2021/06/10 06:54:36;;;;;;;10.30;9.60;;;32.10;9.70;;;;;;5072670;28;20197;-73
2021/06/10 06:57:03;;;;;;;10.30;9.70;;;32.50;9.10;;;;;;5072451;28;20546;-73
2021/06/10 06:59:29;;;;;;;11.90;11.00;;;32.20;10.70;;;;;;5072848;28;20456;-73
2021/06/10 07:01:54;;;;;;;11.27;10.57;;;32.40;9.00;;;;;;5073075;28;20400;-73
2021/06/10 07:04:20;;;;;;;12.17;11.33;;;32.50;8.60;;;;;;5072830;28;20222;-74
2021/06/10 07:06:47;;;;;;;12.10;11.40;;;32.30;9.30;;;;;;5071110;28;20265;-73
2021/06/10 07:09:13;;;;;;;12.23;11.57;;;32.30;10.10;;;;;;5071731;28;20328;-72
2021/06/10 07:11:38;;;;;;;13.80;12.60;;;32.20;9.90;;;;;;5071444;28;20503;-72
2021/06/10 07:14:04;;;;;;;11.87;11.17;;;32.00;9.70;;;;;;5072359;28;20208;-73
2021/06/10 07:16:30;;;;;;;11.50;10.70;;;32.20;9.30;;;;;;5072275;28;20548;-73
2021/06/10 07:18:56;;;;;;;11.47;10.87;;;32.50;9.60;;;;;;5071691;28;20223;-73
2021/06/10 07:21:21;;;;;;;16.13;12.03;;;32.40;10.10;;;;;;5073323;28;20553;-73
2021/06/10 07:23:47;;;;;;;12.07;11.17;;;32.70;9.10;;;;;;5071321;28;20177;-72
2021/06/10 07:26:13;;;;;;;12.10;11.40;;;32.80;9.10;;;;;;5073546;28;20170;-73
2021/06/10 07:28:38;;;;;;;12.37;11.67;;;33.10;9.90;;;;;;5072038;28;20205;-73
2021/06/10 07:31:04;;;;;;;13.73;13.03;;;33.30;8.70;;;;;;5060151;28;20221;-73
2021/06/10 07:33:29;;;;;;;11.90;11.30;;;33.30;9.20;;;;;;5052185;28;20195;-73
2021/06/10 07:35:55;;;;;;;14.00;13.20;;;33.60;8.30;;;;;;5052590;28;20189;-73
2021/06/10 07:38:21;;;;;;;13.63;12.83;;;33.80;7.60;;;;;;5052067;28;20270;-72
2021/06/10 07:40:46;;;;;;;13.20;12.30;;;34.20;8.80;;;;;;5051547;28;20178;-72
2021/06/10 07:43:12;;;;;;;15.57;14.07;;;34.30;7.60;;;;;;5051618;28;20174;-73
2021/06/10 07:45:37;;;;;;;13.93;13.17;;;34.20;8.40;;;;;;5051931;28;20174;-73
2021/06/10 07:48:04;;;;;;;13.70;12.90;;;34.10;7.70;;;;;;5053988;28;20251;-73
2021/06/10 07:50:30;;;;;;;13.77;12.83;;;34.60;8.00;;;;;;5052004;28;20323;-73
2021/06/10 07:52:56;;;;;;;15.47;14.47;;;34.70;6.80;;;;;;5051429;28;20997;-73
2021/06/10 07:55:22;;;;;;;14.60;13.80;;;34.10;6.70;;;;;;5051884;28;20660;-74
2021/06/10 07:57:48;;;;;;;13.37;12.77;;;33.80;7.70;;;;;;5064017;28;20254;-73
2021/06/10 08:00:15;;;;;;;14.33;13.30;;;33.80;8.00;;;;;;5067131;28;20178;-74
2021/06/10 08:02:41;;;;;;;13.97;13.20;;;33.70;7.20;;;;;;5064855;28;20477;-74
2021/06/10 08:05:08;;;;;;;13.60;12.90;;;34.00;6.60;;;;;;5067059;28;20442;-74
2021/06/10 08:07:34;;;;;;;15.70;14.90;;;33.70;7.80;;;;;;5063336;28;20445;-74
2021/06/10 08:09:59;;;;;;;15.37;14.57;;;33.50;8.40;;;;;;5060168;28;20527;-73
2021/06/10 08:12:25;;;;;;;14.53;13.63;;;33.20;7.90;;;;;;5067566;28;20415;-74
2021/06/10 08:14:50;;;;;;;13.30;12.70;;;33.70;8.00;;;;;;5059808;28;20499;-75
2021/06/10 08:17:17;;;;;;;13.50;12.80;;;33.90;8.70;;;;;;5064813;28;20197;-74
2021/06/10 08:19:43;;;;;;;13.23;12.63;;;33.90;8.70;;;;;;5063259;28;20686;-74
2021/06/10 08:22:08;;;;;;;13.37;12.77;;;33.70;7.20;;;;;;5066395;28;20421;-74
2021/06/10 08:24:34;;;;;;;14.43;13.70;;;34.10;6.80;;;;;;5065173;28;20196;-74
2021/06/10 08:27:00;;;;;;;14.13;13.27;;;34.50;5.30;;;;;;5067301;28;20303;-75
2021/06/10 08:29:27;;;;;;;14.27;13.67;;;34.60;5.00;;;;;;5067778;28;20210;-74
2021/06/10 08:31:55;;;;;;;14.73;13.77;;;34.80;4.90;;;;;;5066932;28;20681;-74
2021/06/10 08:34:22;;;;;;;14.13;13.47;;;34.00;4.50;;;;;;5063568;28;20472;-74
2021/06/10 08:36:49;;;;;;;15.97;14.80;;;33.50;5.10;;;;;;5047873;28;21250;-75
2021/06/10 08:39:15;;;;;;;13.83;13.13;;;33.30;5.70;;;;;;5050743;28;20502;-74
2021/06/10 08:41:42;;;;;;;14.50;13.80;;;33.10;5.90;;;;;;5056117;28;20421;-73
2021/06/10 08:44:08;;;;;;;15.13;14.40;;;33.10;6.60;;;;;;5052345;28;20928;-73
2021/06/10 08:46:35;;;;;;;14.47;13.87;;;33.20;6.00;;;;;;5052490;28;20512;-75
2021/06/10 08:49:01;;;;;;;14.63;14.03;;;33.70;6.30;;;;;;5046075;28;20194;-73
2021/06/10 08:51:27;;;;;;;15.10;14.40;;;33.50;6.60;;;;;;5068728;28;20424;-73
2021/06/10 08:53:56;;;;;;;15.70;14.70;;;33.40;6.40;;;;;;5075325;28;20462;-74
2021/06/10 08:56:23;;;;;;;15.17;14.47;;;33.50;6.90;;;;;;5066763;28;20208;-74
2021/06/10 08:58:49;;;;;;;15.90;15.00;;;33.00;7.20;;;;;;5053184;28;20453;-73
2021/06/10 09:01:15;;;;;;;14.97;14.17;;;32.30;8.60;;;;;;5062311;28;20430;-73
2021/06/10 09:03:41;;;;;;;14.70;13.80;;;31.10;8.60;;;;;;5071970;28;20216;-73
2021/06/10 09:06:07;;;;;;;15.70;14.90;;;30.10;11.00;;;;;;5068588;28;20858;-73
2021/06/10 09:08:37;;;;;;;15.70;15.00;;;29.50;11.40;;;;;;5070630;28;20697;-75
2021/06/10 09:11:04;;;;;;;14.73;14.03;;;29.10;12.30;;;;;;5070469;28;20182;-72
2021/06/10 09:13:42;;;;;;;14.83;14.03;;;28.70;12.90;;;;;;5070874;28;20509;-73
2021/06/10 09:16:27;;;;;;;16.53;15.20;;;28.50;13.40;;;;;;5069148;28;20442;-73
2021/06/10 09:18:54;;;;;;;13.13;12.33;;;;;;;;;;5070508;28;20933;-73
2021/06/10 09:21:28;;;;;;;13.10;12.50;;;27.30;14.70;;;;;;5069808;28;20427;-73
2021/06/10 09:23:55;;;;;;;13.00;12.20;;;27.00;16.60;;;;;;5069860;28;20430;-73
2021/06/10 09:26:21;;;;;;;13.80;13.00;;;27.10;17.50;;;;;;5069755;28;20938;-73
2021/06/10 09:28:51;;;;;;;14.10;13.13;;;27.10;17.80;;;;;;5070567;28;20522;-75
2021/06/10 09:31:34;;;;;;;13.00;12.27;;;26.80;17.60;;;;;;5062516;28;20440;-73
2021/06/10 09:34:09;;;;;;;14.47;13.37;;;26.70;18.10;;;;;;5068778;28;20517;-73
2021/06/10 09:36:48;;;;;;;14.23;13.10;;;26.60;17.60;;;;;;5067391;28;20428;-72
2021/06/10 09:39:18;;;;;;;12.90;12.00;;;26.40;18.40;;;;;;5052983;28;20956;-73
2021/06/10 09:42:08;;;;;;;11.03;10.40;;;26.50;17.40;;;;;;5074115;28;20469;-72
2021/06/10 09:44:38;;;;;;;12.60;12.00;;;26.50;18.10;;;;;;5074131;28;20478;-72
2021/06/10 09:47:05;;;;;;;13.03;12.17;;;26.40;17.10;;;;;;5073917;28;20485;-72
2021/06/10 09:49:30;;;;;;;13.67;12.90;;;26.50;18.30;;;;;;5065225;28;20436;-72
2021/06/10 09:51:56;;;;;;;14.40;12.30;;;26.50;17.30;;;;;;5072859;28;20805;-73
2021/06/10 09:54:45;;;;;;;12.87;12.17;;;26.50;17.00;;;;;;5074747;28;20258;-72
2021/06/10 09:57:13;;;;;;;12.57;11.87;;;26.40;17.10;;;;;;5074061;28;20178;-72
2021/06/10 09:59:45;;;;;;;11.30;10.50;;;26.20;17.00;;;;;;5078573;28;20538;-73
2021/06/10 10:02:27;;;;;;;11.90;11.20;;;26.30;18.60;;;;;;5085327;28;20960;-73
2021/06/10 10:05:08;;;;;;;11.80;11.20;;;26.50;18.30;;;;;;5080789;28;20544;-73
2021/06/10 10:07:36;;;;;;;12.60;11.90;;;26.30;16.70;;;;;;5079643;28;20432;-73
2021/06/10 10:10:06;;;;;;;11.00;10.43;;;26.40;17.60;;;;;;5072647;28;20437;-74
2021/06/10 10:12:32;;;;;;;13.50;12.50;;;26.40;17.70;;;;;;5072618;28;20424;-74
2021/06/10 10:14:59;;;;;;;11.57;10.80;;;26.30;17.10;;;;;;5074556;28;20486;-73
2021/06/10 10:17:27;;;;;;;12.23;11.53;;;26.30;18.50;;;;;;5053388;28;20444;-74
2021/06/10 10:19:55;;;;;;;14.30;13.40;;;26.40;18.50;;;;;;5054446;28;20777;-73
2021/06/10 10:22:20;;;;;;;13.57;12.67;;;26.60;15.80;;;;;;5055640;28;20549;-73
2021/06/10 10:24:46;;;;;;;13.93;13.20;;;26.60;15.20;;;;;;5060901;28;21172;-73
2021/06/10 10:27:13;;;;;;;13.10;12.30;;;26.70;14.80;;;;;;5055128;28;20259;-73
2021/06/10 10:29:47;;;;;;;14.70;13.80;;;26.70;14.20;;;;;;5055290;28;20274;-73
2021/06/10 10:32:25;;;;;;;13.70;12.77;;;26.80;12.30;;;;;;5055977;28;20424;-73
2021/06/10 10:34:51;;;;;;;12.53;11.83;;;26.50;12.70;;;;;;5060925;28;20469;-73
2021/06/10 10:37:38;;;;;;;13.73;13.03;;;26.40;12.90;;;;;;5074889;28;20788;-73
2021/06/10 10:40:04;;;;;;;15.23;14.10;;;26.60;14.10;;;;;;5075104;28;20408;-73
2021/06/10 10:42:34;;;;;;;12.87;12.23;;;26.80;14.20;;;;;;5066970;28;20421;-73
2021/06/10 10:45:17;;;;;;;13.73;13.03;;;27.00;14.80;;;;;;5066218;28;20423;-72
2021/06/10 10:47:56;;;;;;;14.60;13.80;;;27.10;14.30;;;;;;5073637;28;20428;-73
2021/06/10 10:50:40;;;;;;;14.13;12.93;;;27.30;14.80;;;;;;5074185;28;20425;-73
2021/06/10 10:53:19;;;;;;;12.60;12.00;;;27.10;14.70;;;;;;5074360;28;20867;-74
2021/06/10 10:55:46;;;;;;;14.10;13.20;;;26.50;15.80;;;;;;5076565;28;20431;-73
2021/06/10 10:58:20;;;;;;;13.30;12.60;;;26.30;15.70;;;;;;5074552;28;20444;-73
2021/06/10 11:00:50;;;;;;;12.70;12.10;;;26.00;15.70;;;;;;5075322;28;20429;-75
2021/06/10 11:03:18;;;;;;;13.60;12.70;;;25.80;17.00;;;;;;5053712;28;20421;-74
2021/06/10 11:05:44;;;;;;;13.37;12.47;;;26.10;17.40;;;;;;5054165;28;20654;-74
2021/06/10 11:08:10;;;;;;;13.67;12.43;;;26.40;16.40;;;;;;5053298;28;20421;-73
2021/06/10 11:10:51;;;;;;;13.77;12.93;;;26.80;15.80;;;;;;5069466;28;20432;-73
2021/06/10 11:13:19;;;;;;;13.87;13.17;;;27.20;16.70;;;;;;5052615;28;20421;-73
2021/06/10 11:15:49;;;;;;;14.17;13.37;;;27.20;14.50;;;;;;5054075;28;20866;-73
2021/06/10 11:18:42;;;;;;;14.63;13.90;;;27.30;15.70;;;;;;5054387;28;20798;-73
2021/06/10 11:21:53;;;;;;;13.70;13.00;;;27.40;12.50;;;;;;5071620;28;20431;-74
2021/06/10 11:24:21;;;;;;;15.00;14.27;;;27.40;12.20;;;;;;5070493;28;20786;-74
2021/06/10 11:26:53;;;;;;;14.87;14.17;;;27.70;11.30;;;;;;5074465;28;20420;-73
2021/06/10 11:29:19;;;;;;;14.10;13.40;;;27.90;12.50;;;;;;5074660;28;21000;-73
2021/06/10 11:32:20;;;;;;;14.63;13.93;;;28.20;12.70;;;;;;5075280;28;20429;-74
2021/06/10 11:34:51;;;;;;;15.97;15.17;;;28.40;11.60;;;;;;5074966;28;20512;-74
2021/06/10 11:37:22;;;;;;;15.53;14.73;;;28.50;11.80;;;;;;5074641;28;20924;-74
2021/06/10 11:39:47;;;;;;;15.90;15.10;;;28.70;11.20;;;;;;5074497;28;20452;-72
2021/06/10 11:42:13;;;;;;;16.17;15.30;;;28.70;11.10;;;;;;5074505;28;20791;-72
2021/06/10 11:44:47;;;;;;;15.77;14.77;;;28.70;12.90;;;;;;5074697;28;20228;-72
2021/06/10 11:47:24;;;;;;;15.93;15.13;;;28.40;12.70;;;;;;5074726;28;20181;-72
2021/06/10 11:49:49;;;;;;;16.47;15.67;;;28.00;12.10;;;;;;5074199;28;20452;-72
2021/06/10 11:52:15;;;;;;;16.10;15.10;;;27.40;12.90;;;;;;5074356;28;20499;-72
2021/06/10 11:55:03;;;;;;;15.53;13.93;;;27.10;15.50;;;;;;5074333;28;20671;-72
2021/06/10 11:57:29;;;;;;;15.23;14.33;;;26.70;16.90;;;;;;5072417;28;20174;-72
2021/06/10 11:59:55;;;;;;;15.30;14.30;;;26.30;16.30;;;;;;5074886;28;20439;-73
2021/06/10 12:02:24;;;;;;;12.90;12.30;;;26.00;16.90;;;;;;5076497;28;20487;-73
2021/06/10 12:05:06;;;;;;;14.30;13.23;;;26.00;17.20;;;;;;5078056;28;20181;-73
2021/06/10 12:07:31;;;;;;;14.37;13.67;;;26.30;16.20;;;;;;5075400;28;20443;-71
2021/06/10 12:09:58;;;;;;;14.90;14.00;;;26.60;16.60;;;;;;5073732;28;20605;-72
2021/06/10 12:12:45;;;;;;;15.70;14.37;;;27.00;15.00;;;;;;5073710;28;20247;-72
2021/06/10 12:15:29;;;;;;;15.27;14.13;;;27.30;14.60;;;;;;5073237;28;20455;-74
2021/06/10 12:17:57;;;;;;;15.40;14.20;;;27.40;15.10;;;;;;5070508;28;20447;-74
2021/06/10 12:20:44;;;;;;;15.00;14.20;;;27.40;15.50;;;;;;5053438;28;20420;-72
2021/06/10 12:23:22;;;;;;;15.70;14.80;;;27.10;15.80;;;;;;5069441;28;20416;-72
2021/06/10 12:25:50;;;;;;;15.60;14.70;;;27.10;14.80;;;;;;5071504;28;20416;-72
2021/06/10 12:28:30;;;;;;;15.87;14.90;;;27.10;14.80;;;;;;5073025;28;20439;-72
2021/06/10 12:31:16;;;;;;;15.07;14.17;;;27.10;15.00;;;;;;5072840;28;20411;-73
2021/06/10 12:33:47;;;;;;;16.37;15.47;;;27.00;14.50;;;;;;5073223;28;20458;-72
2021/06/10 12:36:25;;;;;;;16.20;15.27;;;26.90;15.30;;;;;;5073476;28;20836;-73